Time;durP1;ratioP1;P1;durP2;ratioP2;P2;SDS_P1;SDS_P2;PMS_P1;PMS_P2;Temp;Humidity;BMP_temperature;BMP_pressure;BME280_temperature;BME280_humidity;BME280_pressure;Samples;Min_cycle;Max_cycle;Signal;HPM_P1;HPM_P2
2022/01/09 00:00:11;;;;;;;1.05;0.93;;;;;;;8.13;69.83;98688.56;5067193;28;20108;-62
2022/01/09 00:02:39;;;;;;;3.28;0.80;;;;;;;8.11;70.96;98706.75;5065273;28;20466;-62
2022/01/09 00:05:08;;;;;;;1.63;0.98;;;;;;;8.10;71.44;98718.50;5078600;28;20148;-61
2022/01/09 00:07:38;;;;;;;4.78;1.60;;;;;;;8.09;71.19;98727.59;5078276;28;20057;-62
2022/01/09 00:10:07;;;;;;;3.22;1.45;;;;;;;8.06;71.94;98735.31;5069083;28;20037;-62
2022/01/09 00:12:35;;;;;;;3.33;1.40;;;;;;;8.01;73.21;98746.78;5070072;28;20076;-61
2022/01/09 00:15:04;;;;;;;4.88;1.90;;;;;;;8.01;73.57;98764.72;5083447;28;20044;-63
2022/01/09 00:17:33;;;;;;;2.33;1.98;;;;;;;7.94;73.80;98782.84;5084119;28;20525;-62
2022/01/09 00:20:01;;;;;;;3.92;1.92;;;;;;;7.86;72.59;98799.34;5083992;28;20533;-61
2022/01/09 00:22:36;;;;;;;3.25;1.20;;;;;;;7.74;72.94;98816.38;5083578;28;20530;-61
2022/01/09 00:25:04;;;;;;;2.85;1.20;;;;;;;7.70;72.59;98831.31;5062191;28;20044;-63
2022/01/09 00:27:31;;;;;;;2.05;0.95;;;;;;;7.67;73.37;98834.47;5076714;28;20400;-62
2022/01/09 00:29:59;;;;;;;2.70;1.10;;;;;;;7.67;73.34;98863.09;5064569;28;20056;-62
2022/01/09 00:32:27;;;;;;;4.40;1.25;;;;;;;7.66;73.65;98867.63;5066306;28;20067;-62
2022/01/09 00:34:56;;;;;;;4.30;1.23;;;;;;;7.62;72.64;98876.41;5064773;28;20057;-63
2022/01/09 00:37:24;;;;;;;2.70;1.75;;;;;;;7.58;72.41;98864.59;5062915;28;20079;-61
2022/01/09 00:39:52;;;;;;;3.50;1.42;;;;;;;7.54;72.87;98882.19;5063947;28;20138;-61
2022/01/09 00:42:20;;;;;;;6.05;1.50;;;;;;;7.51;73.40;98886.16;5055947;28;20095;-63
2022/01/09 00:44:48;;;;;;;2.78;1.27;;;;;;;7.51;73.80;98892.31;5069955;28;20482;-63
2022/01/09 00:47:16;;;;;;;3.85;1.95;;;;;;;7.52;73.08;98898.47;5064534;28;20087;-63
2022/01/09 00:49:44;;;;;;;8.82;2.80;;;;;;;7.47;73.14;98898.41;5064160;28;20490;-61
2022/01/09 00:52:13;;;;;;;8.80;2.25;;;;;;;7.41;73.05;98908.22;5063112;28;20082;-61
2022/01/09 00:54:41;;;;;;;8.98;2.65;;;;;;;7.43;73.58;98922.16;5066656;28;20222;-61
2022/01/09 00:57:09;;;;;;;11.85;3.33;;;;;;;7.38;72.96;98934.63;5083333;28;20052;-61
2022/01/09 00:59:37;;;;;;;13.18;3.55;;;;;;;7.35;73.44;98948.50;5084321;28;20068;-63
2022/01/09 01:02:05;;;;;;;21.42;4.68;;;;;;;7.34;73.17;98941.53;5068489;28;20383;-61
2022/01/09 01:04:33;;;;;;;17.98;4.68;;;;;;;7.37;74.03;98957.88;5085516;28;20052;-61
2022/01/09 01:07:00;;;;;;;17.90;4.25;;;;;;;7.35;73.53;98967.19;5074650;28;20068;-61
2022/01/09 01:09:31;;;;;;;20.92;4.20;;;;;;;7.38;72.97;98966.72;5071499;28;20052;-63
2022/01/09 01:11:59;;;;;;;13.45;3.58;;;;;;;7.37;73.54;98967.75;5070842;28;20053;-61
2022/01/09 01:14:28;;;;;;;20.55;4.30;;;;;;;7.36;73.48;98969.63;5074766;28;20045;-63
2022/01/09 01:16:56;;;;;;;21.63;5.15;;;;;;;7.44;73.22;98976.41;5079799;28;20118;-63
2022/01/09 01:19:24;;;;;;;20.60;4.97;;;;;;;7.42;73.24;98987.34;5075094;28;20104;-61
2022/01/09 01:21:52;;;;;;;22.63;4.25;;;;;;;7.37;73.55;98995.28;5081729;28;20057;-61
2022/01/09 01:24:21;;;;;;;18.08;3.83;;;;;;;7.35;73.25;98993.94;5066266;28;20064;-61
2022/01/09 01:26:50;;;;;;;24.67;4.38;;;;;;;7.32;73.32;99015.78;5072000;28;20055;-61
2022/01/09 01:29:18;;;;;;;25.55;3.85;;;;;;;7.28;72.76;99009.31;5066203;28;20052;-61
2022/01/09 01:31:45;;;;;;;36.95;5.75;;;;;;;7.31;72.47;99022.19;5078889;28;20084;-61
2022/01/09 01:34:14;;;;;;;18.20;4.50;;;;;;;7.31;72.94;99033.69;5066639;28;20095;-61
2022/01/09 01:36:42;;;;;;;17.98;4.55;;;;;;;7.31;72.87;99020.31;5066356;28;20049;-61
2022/01/09 01:39:09;;;;;;;23.35;4.28;;;;;;;7.35;72.92;99039.34;5066265;28;20057;-61
2022/01/09 01:41:37;;;;;;;18.17;3.80;;;;;;;7.33;72.47;99039.59;5071452;28;20060;-61
2022/01/09 01:44:11;;;;;;;22.55;4.50;;;;;;;7.37;72.72;99053.28;5072407;28;20072;-61
2022/01/09 01:46:39;;;;;;;26.90;4.80;;;;;;;7.33;72.58;99069.00;5076678;28;20068;-61
2022/01/09 01:49:10;;;;;;;29.13;4.53;;;;;;;7.36;72.90;99075.72;5060973;28;20077;-61
2022/01/09 01:51:39;;;;;;;22.70;5.38;;;;;;;7.34;73.04;99081.28;5065791;28;20057;-61
2022/01/09 01:54:09;;;;;;;22.95;4.88;;;;;;;7.29;73.09;99088.44;5062139;28;20083;-61
2022/01/09 01:56:37;;;;;;;18.63;4.82;;;;;;;7.30;73.31;99098.06;5067607;28;20095;-61
2022/01/09 01:59:06;;;;;;;17.70;3.67;;;;;;;7.25;73.15;99095.31;5066047;28;20053;-61
2022/01/09 02:01:36;;;;;;;24.60;4.68;;;;;;;7.28;72.75;99108.19;5066101;28;20083;-61
2022/01/09 02:04:05;;;;;;;24.90;5.00;;;;;;;7.30;72.47;99106.88;5066444;28;20083;-61
2022/01/09 02:06:34;;;;;;;20.42;6.28;;;;;;;7.35;72.09;99114.97;5066744;28;20127;-61
2022/01/09 02:09:01;;;;;;;24.05;5.72;;;;;;;7.38;72.41;99121.72;5075584;28;20052;-61
2022/01/09 02:11:30;;;;;;;22.38;4.65;;;;;;;7.41;72.91;99116.69;5081223;28;20048;-61
2022/01/09 02:13:58;;;;;;;26.40;5.90;;;;;;;7.46;72.52;99135.47;5070342;28;20155;-61
2022/01/09 02:16:27;;;;;;;25.80;5.97;;;;;;;7.50;72.57;99139.28;5070678;28;20075;-64
2022/01/09 02:18:58;;;;;;;24.20;5.38;;;;;;;7.53;72.44;99147.88;5066238;28;20076;-61
2022/01/09 02:21:27;;;;;;;26.13;5.50;;;;;;;7.55;73.15;99148.44;5072450;28;20048;-61
2022/01/09 02:23:54;;;;;;;31.98;6.45;;;;;;;7.53;72.54;99151.34;5064983;28;20091;-61
2022/01/09 02:26:24;;;;;;;33.78;6.45;;;;;;;7.49;72.88;99152.88;5063138;28;20510;-61
2022/01/09 02:28:52;;;;;;;25.00;5.07;;;;;;;7.53;72.96;99153.22;5069795;28;20079;-61
2022/01/09 02:31:20;;;;;;;22.60;6.05;;;;;;;7.53;72.99;99151.34;5070232;28;20126;-61
2022/01/09 02:33:48;;;;;;;28.30;4.88;;;;;;;7.56;72.55;99168.75;5065912;28;20045;-61
2022/01/09 02:36:15;;;;;;;36.05;6.78;;;;;;;7.51;73.14;99172.97;5074128;28;20055;-61
2022/01/09 02:38:44;;;;;;;31.27;5.20;;;;;;;7.46;73.16;99180.09;5071664;28;20053;-61
2022/01/09 02:41:12;;;;;;;30.27;5.55;;;;;;;7.47;73.17;99179.84;5080629;28;20502;-61
2022/01/09 02:43:40;;;;;;;26.55;6.40;;;;;;;7.46;72.96;99182.78;5065544;28;20061;-61
2022/01/09 02:46:15;;;;;;;23.27;4.97;;;;;;;7.46;72.90;99174.75;5068271;28;20112;-61
2022/01/09 02:48:44;;;;;;;26.38;5.18;;;;;;;7.50;73.41;99199.94;5066144;28;20071;-61
2022/01/09 02:51:14;;;;;;;30.10;4.53;;;;;;;7.53;72.70;99214.69;5072353;28;20081;-61
2022/01/09 02:53:45;;;;;;;35.08;6.45;;;;;;;7.53;72.75;99209.34;5067059;28;20068;-61
2022/01/09 02:56:16;;;;;;;25.40;5.78;;;;;;;7.51;72.65;99226.44;5074412;28;20045;-61
2022/01/09 02:58:44;;;;;;;31.33;5.63;;;;;;;7.52;72.79;99229.91;5059513;28;20139;-61
2022/01/09 03:01:12;;;;;;;24.55;4.85;;;;;;;7.54;73.08;99238.50;5077547;28;20131;-61
2022/01/09 03:03:40;;;;;;;28.55;5.68;;;;;;;7.57;72.32;99250.59;5060509;28;20087;-61
2022/01/09 03:06:09;;;;;;;28.25;6.10;;;;;;;7.55;72.28;99258.03;5068386;28;20049;-61
2022/01/09 03:08:38;;;;;;;24.83;4.63;;;;;;;7.52;72.92;99259.31;5077475;28;20044;-61
2022/01/09 03:11:05;;;;;;;31.83;6.13;;;;;;;7.53;72.38;99271.63;5081412;28;20128;-61
2022/01/09 03:13:34;;;;;;;30.83;6.07;;;;;;;7.51;72.38;99274.56;5072157;28;20048;-61
2022/01/09 03:16:02;;;;;;;26.25;4.78;;;;;;;7.48;72.03;99277.72;5084514;28;20080;-61
2022/01/09 03:18:30;;;;;;;31.58;4.72;;;;;;;7.49;72.00;99282.00;5068258;28;20060;-61
2022/01/09 03:20:58;;;;;;;23.55;5.63;;;;;;;7.47;71.99;99288.63;5065965;28;20049;-61
2022/01/09 03:23:25;;;;;;;24.63;4.43;;;;;;;7.44;72.20;99295.28;5068081;28;20041;-61
2022/01/09 03:25:53;;;;;;;26.33;4.75;;;;;;;7.46;71.74;99305.72;5064021;28;20110;-61
2022/01/09 03:28:21;;;;;;;37.75;5.28;;;;;;;7.44;71.62;99303.28;5071940;28;20052;-62
2022/01/09 03:30:50;;;;;;;29.73;5.18;;;;;;;7.45;71.56;99306.78;5065362;28;20052;-61
2022/01/09 03:33:17;;;;;;;17.77;3.42;;;;;;;7.47;71.47;99323.38;5054411;28;20056;-61
2022/01/09 03:35:45;;;;;;;18.45;3.65;;;;;;;7.49;71.07;99323.97;5063389;28;20049;-61
2022/01/09 03:38:13;;;;;;;25.33;5.40;;;;;;;7.49;70.72;99326.63;5064048;28;20415;-61
2022/01/09 03:40:41;;;;;;;20.67;3.05;;;;;;;7.49;71.11;99326.63;5067574;28;20049;-64
2022/01/09 03:43:09;;;;;;;21.40;4.07;;;;;;;7.45;71.16;99342.34;5073083;28;20095;-61
2022/01/09 03:45:37;;;;;;;20.95;4.60;;;;;;;7.43;70.76;99349.78;5063724;28;20080;-61
2022/01/09 03:48:06;;;;;;;22.33;6.22;;;;;;;7.36;70.93;99356.31;5063721;28;20071;-61
2022/01/09 03:50:34;;;;;;;14.18;2.85;;;;;;;7.33;70.69;99362.13;5071781;28;20045;-61
2022/01/09 03:53:04;;;;;;;26.00;4.35;;;;;;;7.38;70.42;99376.41;5066249;28;20087;-61
2022/01/09 03:55:31;;;;;;;20.70;3.80;;;;;;;7.38;70.01;99368.38;5071872;28;20070;-61
2022/01/09 03:57:59;;;;;;;14.00;3.47;;;;;;;7.41;70.09;99375.94;5064400;28;20088;-61
2022/01/09 04:00:27;;;;;;;15.88;2.92;;;;;;;7.36;70.51;99375.84;5062150;28;20049;-61
2022/01/09 04:02:55;;;;;;;19.45;4.13;;;;;;;7.37;70.29;99392.69;5064005;28;20391;-61
2022/01/09 04:05:24;;;;;;;22.98;4.32;;;;;;;7.42;69.93;99398.13;5072483;28;20067;-61
2022/01/09 04:07:52;;;;;;;17.58;4.90;;;;;;;7.41;70.17;99402.66;5066715;28;20045;-63
2022/01/09 04:10:41;;;;;;;19.60;3.50;;;;;;;7.40;69.65;99406.38;5082839;28;20074;-61
2022/01/09 04:13:09;;;;;;;21.90;3.60;;;;;;;7.38;69.38;99397.78;5057015;28;20513;-61
2022/01/09 04:15:38;;;;;;;15.63;3.60;;;;;;;7.41;69.53;99416.03;5065074;28;20044;-61
2022/01/09 04:18:06;;;;;;;16.20;4.78;;;;;;;7.42;69.63;99425.66;5063640;28;20049;-61
2022/01/09 04:20:35;;;;;;;23.55;4.50;;;;;;;7.38;69.83;99429.03;5066743;28;20049;-61
2022/01/09 04:23:03;;;;;;;17.65;3.22;;;;;;;7.35;69.25;99426.84;5066357;28;20076;-61
2022/01/09 04:25:30;;;;;;;21.38;3.60;;;;;;;7.36;69.40;99437.28;5064465;28;20049;-61
2022/01/09 04:27:58;;;;;;;19.27;3.95;;;;;;;7.37;69.24;99446.13;5074392;28;20083;-61
2022/01/09 04:30:26;;;;;;;19.13;3.75;;;;;;;7.32;69.20;99444.16;5067581;28;20045;-61
2022/01/09 04:32:54;;;;;;;13.57;2.55;;;;;;;7.34;69.04;99459.97;5076687;28;20079;-61
2022/01/09 04:35:21;;;;;;;15.90;3.00;;;;;;;7.26;69.07;99453.13;5059230;28;20049;-61
2022/01/09 04:37:52;;;;;;;13.13;2.60;;;;;;;7.33;69.15;99461.00;5073830;28;20502;-61
2022/01/09 04:40:21;;;;;;;12.15;3.47;;;;;;;7.34;69.01;99466.13;5079903;28;20090;-61
2022/01/09 04:42:54;;;;;;;15.65;3.85;;;;;;;7.36;68.76;99474.72;5072836;28;20087;-61
2022/01/09 04:45:24;;;;;;;10.20;2.53;;;;;;;7.32;68.85;99486.91;5074892;28;20065;-61
2022/01/09 04:47:53;;;;;;;13.65;3.03;;;;;;;7.30;69.10;99489.00;5067268;28;20076;-61
2022/01/09 04:50:25;;;;;;;18.88;3.72;;;;;;;7.31;68.84;99500.50;5067258;28;20056;-61
2022/01/09 04:52:59;;;;;;;13.15;3.35;;;;;;;7.30;68.52;99501.56;5065846;28;20072;-61
2022/01/09 04:55:27;;;;;;;19.35;3.90;;;;;;;7.33;68.78;99509.13;5068612;28;20057;-61
2022/01/09 04:57:55;;;;;;;9.27;2.45;;;;;;;7.31;68.32;99517.38;5076680;28;20076;-61
2022/01/09 05:00:23;;;;;;;12.73;3.38;;;;;;;7.30;68.22;99522.94;5062400;28;20045;-61
2022/01/09 05:02:51;;;;;;;18.80;4.43;;;;;;;7.34;68.80;99532.94;5076781;28;20049;-61
2022/01/09 05:05:19;;;;;;;19.80;3.55;;;;;;;7.33;68.87;99533.16;5065858;28;20061;-61
2022/01/09 05:07:47;;;;;;;20.55;3.85;;;;;;;7.32;68.75;99547.56;5077011;28;20045;-61
2022/01/09 05:10:17;;;;;;;18.25;3.50;;;;;;;7.30;68.41;99547.00;5067248;28;20089;-61
2022/01/09 05:12:44;;;;;;;15.30;4.00;;;;;;;7.31;68.82;99552.09;5054997;28;20045;-61
2022/01/09 05:15:15;;;;;;;15.45;2.70;;;;;;;7.31;68.54;99561.97;5076174;28;20052;-61
2022/01/09 05:17:43;;;;;;;10.52;2.58;;;;;;;7.31;68.59;99568.13;5056914;28;20076;-61
2022/01/09 05:20:12;;;;;;;14.90;3.47;;;;;;;7.32;68.20;99568.94;5080384;28;20222;-61
2022/01/09 05:22:40;;;;;;;15.95;3.70;;;;;;;7.32;68.45;99583.13;5069911;28;20073;-61
2022/01/09 05:25:08;;;;;;;13.82;4.35;;;;;;;7.33;68.83;99590.09;5081550;28;20068;-63
2022/01/09 05:27:38;;;;;;;14.82;3.35;;;;;;;7.28;68.67;99592.66;5060318;28;20088;-61
2022/01/09 05:30:07;;;;;;;16.17;3.28;;;;;;;7.27;68.56;99595.56;5066577;28;20117;-61
2022/01/09 05:32:35;;;;;;;14.00;3.53;;;;;;;7.28;68.38;99594.50;5068802;28;20096;-61
2022/01/09 05:35:03;;;;;;;14.07;3.63;;;;;;;7.25;68.45;99594.97;5064726;28;20076;-61
2022/01/09 05:37:31;;;;;;;13.52;3.25;;;;;;;7.27;68.32;99600.91;5066400;28;20099;-61
2022/01/09 05:39:59;;;;;;;13.27;3.00;;;;;;;7.28;68.07;99602.53;5069743;28;20091;-61
2022/01/09 05:42:27;;;;;;;15.77;2.67;;;;;;;7.30;68.66;99606.59;5061290;28;20064;-61
2022/01/09 05:44:56;;;;;;;16.92;3.97;;;;;;;7.29;68.17;99606.81;5068633;28;20051;-61
2022/01/09 05:47:23;;;;;;;13.43;3.00;;;;;;;7.30;68.40;99621.81;5086434;28;20098;-61
2022/01/09 05:49:52;;;;;;;17.40;4.10;;;;;;;7.28;68.21;99626.56;5086279;28;20060;-61
2022/01/09 05:52:19;;;;;;;13.80;3.97;;;;;;;7.23;67.80;99626.44;5072150;28;20152;-61
2022/01/09 05:54:48;;;;;;;19.13;3.08;;;;;;;7.24;68.33;99625.41;5079616;28;20045;-61
2022/01/09 05:57:16;;;;;;;13.35;3.40;;;;;;;7.26;68.33;99632.16;5066604;28;20095;-61
2022/01/09 05:59:44;;;;;;;17.08;3.35;;;;;;;7.28;67.93;99634.59;5065418;28;20088;-61
2022/01/09 06:02:13;;;;;;;14.65;3.03;;;;;;;7.28;68.37;99635.41;5065544;28;20055;-62
2022/01/09 06:04:40;;;;;;;18.80;3.88;;;;;;;7.29;67.79;99634.38;5076300;28;20071;-61
2022/01/09 06:07:09;;;;;;;15.35;2.65;;;;;;;7.30;67.98;99643.19;5070251;28;20055;-61
2022/01/09 06:09:36;;;;;;;12.68;2.65;;;;;;;7.29;67.88;99652.25;5069817;28;20055;-63
2022/01/09 06:12:05;;;;;;;21.05;3.80;;;;;;;7.26;67.50;99655.38;5063582;28;20095;-63
2022/01/09 06:14:32;;;;;;;17.17;2.90;;;;;;;7.23;67.92;99662.00;5058206;28;20366;-61
2022/01/09 06:17:00;;;;;;;11.75;1.90;;;;;;;7.24;68.00;99654.81;4361145;28;10022239;-61
2022/01/09 06:19:29;;;;;;;14.63;3.10;;;;;;;7.25;68.12;99659.91;5054089;28;20053;-63
2022/01/09 06:21:57;;;;;;;15.95;2.63;;;;;;;7.26;68.01;99658.88;5054313;28;20069;-61
2022/01/09 06:24:25;;;;;;;10.48;4.22;;;;;;;7.27;68.28;99662.34;5054170;28;20105;-61
2022/01/09 06:26:52;;;;;;;18.75;3.00;;;;;;;7.27;67.87;99667.72;5054349;28;20052;-61
2022/01/09 06:29:20;;;;;;;12.80;2.65;;;;;;;7.26;68.21;99674.91;5053618;28;20135;-61
2022/01/09 06:31:51;;;;;;;13.80;3.55;;;;;;;7.28;68.05;99688.03;5054969;28;20122;-61
2022/01/09 06:34:19;;;;;;;14.38;3.22;;;;;;;7.37;67.81;99684.00;5054545;28;20091;-63
2022/01/09 06:36:48;;;;;;;20.92;3.60;;;;;;;7.47;66.94;99687.72;5056904;28;20056;-61
2022/01/09 06:39:16;;;;;;;14.70;2.95;;;;;;;7.58;67.39;99688.81;5074266;28;20498;-60
2022/01/09 06:41:43;;;;;;;11.48;2.65;;;;;;;7.60;67.10;99689.38;5071315;28;20056;-62
2022/01/09 06:44:11;;;;;;;12.98;2.60;;;;;;;7.62;67.23;99698.00;5066676;28;20095;-62
2022/01/09 06:46:39;;;;;;;16.98;3.95;;;;;;;7.60;67.25;99702.75;5081523;28;20709;-62
2022/01/09 06:49:07;;;;;;;16.48;3.65;;;;;;;7.56;67.24;99698.91;5063781;28;20488;-63
2022/01/09 06:51:35;;;;;;;16.67;3.30;;;;;;;7.56;67.36;99701.59;5059832;28;20053;-61
2022/01/09 06:54:04;;;;;;;15.00;3.42;;;;;;;7.68;67.30;99698.94;5068687;28;20538;-64
2022/01/09 06:56:32;;;;;;;17.48;4.05;;;;;;;7.79;66.64;99706.16;5058048;28;20056;-63
2022/01/09 06:58:59;;;;;;;11.05;2.83;;;;;;;7.91;66.00;99715.00;5079884;28;20084;-63
2022/01/09 07:01:27;;;;;;;16.75;3.08;;;;;;;8.08;65.31;99725.81;5063198;28;20083;-63
2022/01/09 07:03:55;;;;;;;18.08;2.95;;;;;;;8.16;65.01;99720.13;5053613;28;20159;-63
2022/01/09 07:06:23;;;;;;;12.57;3.75;;;;;;;8.31;65.26;99725.00;5050681;28;20062;-63
2022/01/09 07:08:50;;;;;;;16.10;4.20;;;;;;;8.44;64.45;99728.25;5053569;28;20132;-61
2022/01/09 07:11:19;;;;;;;11.07;2.60;;;;;;;8.57;64.42;99737.09;5052996;28;20049;-60
2022/01/09 07:13:47;;;;;;;9.65;2.72;;;;;;;8.67;63.53;99732.72;5052918;28;20072;-61
2022/01/09 07:16:18;;;;;;;7.53;2.42;;;;;;;8.76;63.32;99735.84;5053786;28;20120;-61
2022/01/09 07:18:45;;;;;;;14.95;2.10;;;;;;;8.80;63.18;99748.53;5054641;28;20069;-61
2022/01/09 07:21:13;;;;;;;13.88;3.13;;;;;;;8.88;62.87;99752.72;5052758;28;20513;-61
2022/01/09 07:23:41;;;;;;;9.35;2.75;;;;;;;8.88;62.87;99762.63;5052806;28;20056;-61
2022/01/09 07:26:10;;;;;;;11.88;3.10;;;;;;;8.85;63.10;99768.44;5051890;28;20231;-61
2022/01/09 07:28:39;;;;;;;9.52;2.65;;;;;;;8.75;63.07;99769.88;5051980;28;20118;-61
2022/01/09 07:31:06;;;;;;;11.13;2.70;;;;;;;8.58;63.70;99773.53;5052590;28;20136;-62
2022/01/09 07:33:34;;;;;;;13.00;2.97;;;;;;;8.41;64.47;99770.75;5054371;28;20076;-61
2022/01/09 07:36:02;;;;;;;17.48;3.22;;;;;;;8.28;65.71;99779.00;5053238;28;20091;-62
2022/01/09 07:38:30;;;;;;;10.38;2.47;;;;;;;8.17;64.79;99775.25;5053732;28;20127;-63
2022/01/09 07:40:58;;;;;;;7.10;2.30;;;;;;;8.09;65.68;99781.78;5051653;28;20564;-63
2022/01/09 07:43:26;;;;;;;12.45;2.67;;;;;;;8.01;65.94;99782.13;5051473;28;20045;-63
2022/01/09 07:45:55;;;;;;;13.50;3.25;;;;;;;7.96;66.01;99797.22;5053666;28;20049;-66
2022/01/09 07:48:23;;;;;;;15.30;3.20;;;;;;;7.88;66.26;99800.25;5056564;28;20123;-63
2022/01/09 07:50:51;;;;;;;12.55;2.92;;;;;;;7.82;66.36;99808.13;5067303;28;20466;-62
2022/01/09 07:53:23;;;;;;;14.10;2.50;;;;;;;7.77;66.33;99812.53;5060523;28;20091;-62
2022/01/09 07:55:51;;;;;;;13.23;3.55;;;;;;;7.72;66.85;99804.38;5064174;28;20049;-66
2022/01/09 07:58:19;;;;;;;7.20;1.95;;;;;;;7.71;66.92;99822.28;5072004;28;20048;-62
2022/01/09 08:00:47;;;;;;;13.90;2.80;;;;;;;7.66;67.16;99814.13;5078742;28;20076;-63
2022/01/09 08:03:16;;;;;;;15.70;3.30;;;;;;;7.60;66.92;99820.41;5079779;28;20056;-61
2022/01/09 08:05:44;;;;;;;11.23;2.85;;;;;;;7.60;67.08;99828.41;5075457;28;20132;-62
2022/01/09 08:08:12;;;;;;;15.65;3.75;;;;;;;7.58;67.70;99843.06;5059965;28;20064;-61
2022/01/09 08:10:40;;;;;;;8.70;2.65;;;;;;;7.55;67.84;99844.31;5076209;28;20053;-60
2022/01/09 08:13:07;;;;;;;9.93;3.05;;;;;;;7.54;67.53;99847.22;5060318;28;20534;-61
2022/01/09 08:15:35;;;;;;;10.18;2.53;;;;;;;7.50;67.58;99853.03;5060844;28;20052;-60
2022/01/09 08:18:03;;;;;;;11.50;2.70;;;;;;;7.49;68.43;99854.06;5058215;28;20383;-62
2022/01/09 08:20:32;;;;;;;9.52;2.25;;;;;;;7.48;67.92;99849.75;5068338;28;20068;-62
2022/01/09 08:23:00;;;;;;;9.32;2.45;;;;;;;7.48;67.85;99852.44;5060574;28;20122;-63
2022/01/09 08:25:28;;;;;;;10.18;2.38;;;;;;;7.48;68.06;99854.28;5065431;28;20088;-62
2022/01/09 08:27:56;;;;;;;10.15;1.83;;;;;;;7.47;68.21;99866.84;5052000;28;20073;-61
2022/01/09 08:30:24;;;;;;;13.50;2.53;;;;;;;7.44;68.17;99864.63;5049651;28;20048;-62
2022/01/09 08:32:52;;;;;;;16.63;2.63;;;;;;;7.45;67.94;99873.47;5052472;28;20080;-62
2022/01/09 08:35:22;;;;;;;10.85;2.53;;;;;;;7.44;68.31;99869.16;5052503;28;20115;-62
2022/01/09 08:37:51;;;;;;;9.27;2.22;;;;;;;7.44;68.71;99877.16;5049782;28;20125;-61
2022/01/09 08:40:22;;;;;;;9.73;2.10;;;;;;;7.43;68.19;99879.03;5050545;28;20064;-62
2022/01/09 08:42:53;;;;;;;8.00;2.63;;;;;;;7.43;68.47;99875.53;5050658;28;20053;-62
2022/01/09 08:45:22;;;;;;;5.72;2.03;;;;;;;7.42;68.21;99877.41;5049064;28;20406;-63
2022/01/09 08:47:50;;;;;;;8.80;2.53;;;;;;;7.43;68.48;99886.22;5050651;28;20064;-64
2022/01/09 08:50:20;;;;;;;9.65;2.30;;;;;;;7.44;67.90;99878.00;5051529;28;20666;-65
2022/01/09 08:52:48;;;;;;;10.93;2.78;;;;;;;7.43;68.17;99887.03;5053593;28;20049;-63
2022/01/09 08:55:18;;;;;;;11.05;2.60;;;;;;;7.44;68.05;99893.22;5053247;28;20080;-63
2022/01/09 08:57:46;;;;;;;11.63;2.50;;;;;;;7.42;68.34;99893.44;5050079;28;20053;-62
2022/01/09 09:00:15;;;;;;;9.95;3.33;;;;;;;7.39;68.46;99909.91;5050990;28;20077;-63
2022/01/09 09:02:43;;;;;;;11.68;2.55;;;;;;;7.40;68.44;99894.69;5055088;28;20075;-62
2022/01/09 09:05:11;;;;;;;10.77;2.03;;;;;;;7.38;68.08;99908.28;5050679;28;20045;-65
2022/01/09 09:07:39;;;;;;;12.60;3.10;;;;;;;7.40;68.08;99910.75;5049456;28;20510;-63
2022/01/09 09:10:07;;;;;;;13.70;3.42;;;;;;;7.40;67.84;99926.78;5050978;28;20194;-63
2022/01/09 09:12:36;;;;;;;11.25;2.78;;;;;;;7.40;68.30;99930.25;5049771;28;20088;-65
2022/01/09 09:15:06;;;;;;;10.00;2.35;;;;;;;7.41;67.83;99925.75;5050076;28;20503;-62
2022/01/09 09:17:35;;;;;;;9.88;2.13;;;;;;;7.42;68.10;99924.69;5051427;28;20096;-63
2022/01/09 09:20:04;;;;;;;10.52;2.92;;;;;;;7.41;68.14;99931.09;5054089;28;20045;-63
2022/01/09 09:22:32;;;;;;;8.30;2.00;;;;;;;7.40;67.95;99937.47;5054413;28;20087;-63
2022/01/09 09:25:00;;;;;;;6.93;2.13;;;;;;;7.40;68.27;99946.31;5054453;28;20041;-62
2022/01/09 09:27:30;;;;;;;10.55;2.97;;;;;;;7.41;68.04;99947.13;5055274;28;20112;-60
2022/01/09 09:30:02;;;;;;;16.30;3.15;;;;;;;7.41;68.26;99955.13;5054121;28;20049;-64
2022/01/09 09:32:30;;;;;;;9.23;2.33;;;;;;;7.39;68.56;99955.38;5054704;28;20076;-61
2022/01/09 09:34:58;;;;;;;14.05;3.08;;;;;;;7.38;68.37;99959.06;5053957;28;20045;-61
2022/01/09 09:37:28;;;;;;;10.73;2.95;;;;;;;7.39;68.44;99966.06;5054847;28;20069;-61
2022/01/09 09:39:56;;;;;;;13.20;2.15;;;;;;;7.40;67.78;99964.19;5056194;28;20122;-61
2022/01/09 09:42:24;;;;;;;14.93;2.90;;;;;;;7.39;68.01;99966.06;5053848;28;20083;-61
2022/01/09 09:44:52;;;;;;;9.07;2.58;;;;;;;7.39;68.35;99968.72;5055319;28;20114;-62
2022/01/09 09:47:22;;;;;;;13.48;3.90;;;;;;;7.40;68.52;99967.69;5054840;28;20120;-61
2022/01/09 09:49:50;;;;;;;9.45;3.17;;;;;;;7.43;68.81;99972.59;5057260;28;20049;-62
2022/01/09 09:52:19;;;;;;;11.15;2.53;;;;;;;7.42;68.17;99973.63;5055134;28;20061;-62
2022/01/09 09:54:48;;;;;;;7.47;2.03;;;;;;;7.42;68.87;99980.84;5054439;28;20481;-63
2022/01/09 09:57:16;;;;;;;9.68;2.40;;;;;;;7.40;68.27;99986.41;5053995;28;20601;-62
2022/01/09 09:59:44;;;;;;;12.23;2.55;;;;;;;7.40;68.61;99981.06;5053314;28;20140;-62
2022/01/09 10:02:13;;;;;;;13.73;3.35;;;;;;;7.41;68.67;99985.34;5054868;28;20663;-62
2022/01/09 10:04:59;;;;;;;9.18;2.53;;;;;;;7.41;68.42;99990.72;5055630;28;20107;-62
2022/01/09 10:07:27;;;;;;;7.68;2.17;;;;;;;7.40;68.28;99989.06;5054393;28;20076;-63
2022/01/09 10:09:57;;;;;;;11.35;2.40;;;;;;;7.41;68.70;99996.06;5052689;28;20117;-62
2022/01/09 10:12:28;;;;;;;14.70;3.28;;;;;;;7.39;68.92;99989.28;4705387;28;9999744;-64
2022/01/09 10:14:57;;;;;;;11.27;2.55;;;;;;;7.39;68.82;99995.47;5056548;28;20095;-64
2022/01/09 10:17:25;;;;;;;7.53;2.17;;;;;;;7.41;68.76;99998.72;5055647;28;20048;-65
2022/01/09 10:19:56;;;;;;;10.02;3.10;;;;;;;7.44;68.56;99997.47;5059795;28;20049;-65
2022/01/09 10:22:32;;;;;;;11.25;3.00;;;;;;;7.44;69.08;100000.13;5057474;28;20076;-64
2022/01/09 10:25:21;;;;;;;9.52;2.45;;;;;;;7.43;68.96;100001.19;5054309;28;20093;-64
2022/01/09 10:27:51;;;;;;;9.55;3.05;;;;;;;7.42;68.56;100003.03;5059850;28;20079;-63
2022/01/09 10:30:22;;;;;;;11.70;2.42;;;;;;;7.44;68.93;100008.16;5060837;28;20041;-63
2022/01/09 10:32:55;;;;;;;12.93;3.13;;;;;;;7.45;68.44;100004.44;5065617;28;20049;-63
2022/01/09 10:35:26;;;;;;;12.25;2.78;;;;;;;7.46;68.95;100014.91;5060171;28;20147;-62
2022/01/09 10:38:06;;;;;;;12.20;2.38;;;;;;;7.46;68.36;100009.56;5063144;28;20475;-63
2022/01/09 10:40:36;;;;;;;10.77;2.45;;;;;;;7.47;68.99;100021.91;5070916;28;20624;-63
2022/01/09 10:43:07;;;;;;;9.07;2.28;;;;;;;7.48;69.20;100026.22;4712441;28;10000484;-63
2022/01/09 10:45:38;;;;;;;10.65;2.33;;;;;;;7.47;68.81;100026.44;5057880;28;20611;-63
2022/01/09 10:48:08;;;;;;;12.10;2.33;;;;;;;7.49;68.97;100029.69;5057388;28;20073;-63
2022/01/09 10:50:40;;;;;;;15.23;3.00;;;;;;;7.49;68.74;100027.03;5063172;28;20057;-64
2022/01/09 10:53:20;;;;;;;10.27;2.88;;;;;;;7.49;68.70;100024.34;5060806;28;20079;-64
2022/01/09 10:55:49;;;;;;;10.77;2.55;;;;;;;7.47;68.60;100019.22;5055762;28;20061;-64
2022/01/09 10:58:23;;;;;;;13.63;2.47;;;;;;;7.48;68.99;100030.75;5055032;28;20067;-63
2022/01/09 11:01:10;;;;;;;9.23;3.75;;;;;;;7.48;68.65;100033.41;5065747;28;20542;-64
2022/01/09 11:03:39;;;;;;;10.88;2.53;;;;;;;7.50;69.15;100047.38;5057311;28;20113;-64
2022/01/09 11:06:11;;;;;;;12.32;3.08;;;;;;;7.53;69.30;100049.59;5063398;28;20085;-62
2022/01/09 11:08:39;;;;;;;12.50;3.25;;;;;;;7.54;68.71;100050.44;5058943;28;20147;-62
2022/01/09 11:11:17;;;;;;;10.38;2.67;;;;;;;7.54;68.59;100053.09;5057227;28;20119;-63
2022/01/09 11:13:47;;;;;;;12.13;2.72;;;;;;;7.53;68.10;100051.47;5060070;28;20052;-63
2022/01/09 11:16:34;;;;;;;8.52;2.65;;;;;;;7.54;68.68;100047.75;5063363;28;20041;-62
2022/01/09 11:19:08;;;;;;;11.52;2.60;;;;;;;7.49;67.58;100051.91;5070095;28;20148;-63
2022/01/09 11:21:39;;;;;;;18.65;3.42;;;;;;;7.50;68.44;100060.75;5050770;28;20081;-63
2022/01/09 11:24:26;;;;;;;9.32;2.47;;;;;;;7.49;68.17;100073.28;5066771;28;20045;-62
2022/01/09 11:26:59;;;;;;;11.40;2.63;;;;;;;7.42;68.55;100055.69;5073206;28;20048;-63
2022/01/09 11:29:39;;;;;;;9.95;2.20;;;;;;;7.50;67.90;100076.78;5060424;28;20060;-63
2022/01/09 11:32:21;;;;;;;10.57;2.22;;;;;;;7.51;68.73;100067.72;5056000;28;20059;-63
2022/01/09 11:34:57;;;;;;;16.08;3.60;;;;;;;7.49;68.28;100073.28;5058367;28;20053;-63
2022/01/09 11:37:44;;;;;;;7.68;2.40;;;;;;;7.50;68.56;100072.25;5057060;28;20049;-62
2022/01/09 11:40:23;;;;;;;14.32;2.78;;;;;;;7.42;68.50;100061.84;5061599;28;20044;-66
2022/01/09 11:43:05;;;;;;;8.70;2.72;;;;;;;7.52;68.51;100072.03;5061412;28;20049;-64